Overview Statistics Trail Chart Weather Telemetry Raw packets
 

This is the latest recevied weather packets stored in our database for station/object STV2-WX. If no packets are shown the sender has not sent any weather packets the latest 10 day(s).

<< 3 4 5 6 7 8 9 >>
Time Temp. Humidity Pressure Rain* Wind** Luminosity Snow
1788247028 19.44° C 54% 1017.5 hPa - - - -
1788243429 17.22° C 60% 1018.1 hPa - - - -
1788239829 16.11° C 64% 1017.9 hPa - - - -
1788236229 14.44° C 70% 1017.9 hPa - - - -
1788232628 13.33° C 72% 1017.5 hPa - - - -
1788229029 13.33° C 70% 1017.5 hPa - - - -
1788225429 13.33° C 65% 1017.7 hPa - - - -
1788221829 13.89° C 59% 1018 hPa - - - -
1788218229 15° C 56% 1017.8 hPa - - - -
1788214629 15.56° C 55% 1017.5 hPa - - - -
1788211028 15.56° C 55% 1017.1 hPa - - - -
1788207429 16.11° C 50% 1017.2 hPa - - - -
1788203829 16.67° C 48% 1017.5 hPa - - - -
1788200229 17.22° C 55% 1017.8 hPa - - - -
1788196629 17.78° C 57% 1017.3 hPa - - - -
1788193029 18.33° C 54% 1016.5 hPa - - - -
1788189429 18.33° C 47% 1017 hPa - - - -
1788185829 20° C 43% 1016.9 hPa - - - -
1788182229 20.56° C 42% 1017.1 hPa - - - -
1788178637 21.11° C 41% 1017.2 hPa - - - -
1788175029 21.11° C 45% 1016.9 hPa - - - -
1788171429 21.11° C 45% 1017 hPa - - - -
1788167829 20.56° C 45% 1017 hPa - - - -
1788164229 20° C 48% 1017.6 hPa - - - -
1788160629 18.89° C 52% 1018 hPa - - - -

* Rain since midnight (hover to see other rain measurements)
** Current wind speed in m/s (hover to see current wind gust speed)